createdAt,value
2017-07-17T00:00:12.390Z,18.71
2017-07-17T00:00:53.277Z,18.73
2017-07-17T00:01:34.169Z,18.74
2017-07-17T00:02:15.045Z,18.78
2017-07-17T00:02:55.939Z,18.73
2017-07-17T00:03:36.923Z,18.77
2017-07-17T00:04:17.758Z,18.81
2017-07-17T00:04:58.638Z,18.77
2017-07-17T00:05:39.531Z,18.83
2017-07-17T00:06:20.423Z,18.78
2017-07-17T00:07:01.315Z,18.81
2017-07-17T00:07:42.222Z,18.83
2017-07-17T00:08:23.127Z,18.7
2017-07-17T00:09:04.010Z,18.75
2017-07-17T00:09:44.903Z,18.71
2017-07-17T00:10:25.787Z,18.74
2017-07-17T00:11:06.684Z,18.78
2017-07-17T00:11:47.574Z,18.78
2017-07-17T00:12:28.460Z,18.83
2017-07-17T00:13:09.355Z,18.86
2017-07-17T00:13:50.247Z,18.83
2017-07-17T00:14:31.138Z,18.77
2017-07-17T00:15:12.028Z,18.86
2017-07-17T00:15:52.919Z,18.89
2017-07-17T00:16:33.798Z,18.88
2017-07-17T00:17:14.681Z,18.9
2017-07-17T00:17:55.589Z,18.9
2017-07-17T00:18:36.473Z,18.93
2017-07-17T00:19:17.357Z,18.93
2017-07-17T00:19:58.257Z,18.96
2017-07-17T00:20:39.148Z,19.08
2017-07-17T00:21:20.022Z,19.07
2017-07-17T00:22:00.949Z,18.96
2017-07-17T00:22:41.833Z,19
2017-07-17T00:23:22.728Z,18.88
2017-07-17T00:24:03.615Z,18.98
2017-07-17T00:24:44.504Z,18.93
2017-07-17T00:25:25.389Z,18.88
2017-07-17T00:26:06.290Z,18.81
2017-07-17T00:26:47.178Z,18.78
2017-07-17T00:27:28.061Z,18.9
2017-07-17T00:28:08.950Z,18.9
2017-07-17T00:28:49.839Z,18.98
2017-07-17T00:29:30.717Z,18.81
2017-07-17T00:30:11.626Z,18.78
2017-07-17T00:30:52.502Z,18.86
2017-07-17T00:31:33.387Z,18.8
2017-07-17T00:32:14.300Z,18.77
2017-07-17T00:32:55.189Z,18.78
2017-07-17T00:33:36.074Z,18.92
2017-07-17T00:34:16.951Z,18.98
2017-07-17T00:34:57.838Z,18.99
2017-07-17T00:35:38.739Z,19.07
2017-07-17T00:36:19.620Z,18.95
2017-07-17T00:37:00.509Z,18.9
2017-07-17T00:37:41.390Z,18.89
2017-07-17T00:38:22.281Z,18.86
2017-07-17T00:39:03.156Z,18.84
2017-07-17T00:39:44.045Z,18.83
2017-07-17T00:40:24.937Z,18.88
2017-07-17T00:41:05.830Z,18.84
2017-07-17T00:41:46.728Z,18.95
2017-07-17T00:42:27.620Z,18.95
2017-07-17T00:43:08.511Z,18.92
2017-07-17T00:43:49.421Z,18.81
2017-07-17T00:44:30.300Z,18.9
2017-07-17T00:45:11.193Z,18.98
2017-07-17T00:45:52.082Z,19.02
2017-07-17T00:46:32.978Z,19.08
2017-07-17T00:47:13.857Z,19.09
2017-07-17T00:47:54.749Z,19
2017-07-17T00:48:35.641Z,19.02
2017-07-17T00:49:16.529Z,18.95
2017-07-17T00:49:57.419Z,19.07
2017-07-17T00:50:38.314Z,19.09
2017-07-17T00:51:19.207Z,19.04
2017-07-17T00:52:00.098Z,19.11
2017-07-17T00:52:40.995Z,19.14
2017-07-17T00:53:21.916Z,19.07
2017-07-17T00:54:02.820Z,19.04
2017-07-17T00:54:43.709Z,18.98
2017-07-17T00:55:24.609Z,18.81
2017-07-17T00:56:05.498Z,18.92
2017-07-17T00:56:46.381Z,18.9
2017-07-17T00:57:27.265Z,18.88
2017-07-17T00:58:08.179Z,19.02
2017-07-17T00:58:49.081Z,18.95
2017-07-17T00:59:29.966Z,19.02
2017-07-17T01:00:10.884Z,19.07
2017-07-17T01:00:51.760Z,19.09
2017-07-17T01:01:32.649Z,19.19
2017-07-17T01:02:13.541Z,19.04
2017-07-17T01:02:54.433Z,18.88
2017-07-17T01:03:35.325Z,18.9
2017-07-17T01:04:16.205Z,18.89
2017-07-17T01:04:57.091Z,18.92
2017-07-17T01:05:38.019Z,18.86
2017-07-17T01:06:18.909Z,18.95
2017-07-17T01:06:59.797Z,18.92
2017-07-17T01:07:40.685Z,18.98
2017-07-17T01:08:21.582Z,18.92
2017-07-17T01:09:02.472Z,18.88
2017-07-17T01:09:43.370Z,18.88
2017-07-17T01:10:24.260Z,18.89
2017-07-17T01:11:05.150Z,18.9
2017-07-17T01:11:46.058Z,18.83
2017-07-17T01:12:26.954Z,18.77
2017-07-17T01:13:07.842Z,18.83
2017-07-17T01:13:48.729Z,18.84
2017-07-17T01:15:28.155Z,18.78
2017-07-17T01:16:09.029Z,18.89
2017-07-17T01:16:49.915Z,18.78
2017-07-17T01:17:30.807Z,18.77
2017-07-17T01:18:11.694Z,18.84
2017-07-17T01:18:52.592Z,18.95
2017-07-17T01:19:33.486Z,18.98
2017-07-17T01:20:14.373Z,18.89
2017-07-17T01:20:55.260Z,18.8
2017-07-17T01:21:36.152Z,18.78
2017-07-17T01:22:17.042Z,18.77
2017-07-17T01:22:57.928Z,18.75
2017-07-17T01:23:38.824Z,18.73
2017-07-17T01:24:19.710Z,18.81
2017-07-17T01:25:00.592Z,18.75
2017-07-17T01:25:41.485Z,18.8
2017-07-17T01:26:22.381Z,18.8
2017-07-17T01:27:03.264Z,18.88
2017-07-17T01:27:44.153Z,18.86
2017-07-17T01:28:25.038Z,18.84
2017-07-17T01:29:05.930Z,18.83
2017-07-17T01:29:46.833Z,18.83
2017-07-17T01:30:27.741Z,18.8
2017-07-17T01:31:08.635Z,18.84
2017-07-17T01:31:49.521Z,18.8
2017-07-17T01:32:30.413Z,18.86
2017-07-17T01:33:11.314Z,18.93
2017-07-17T01:33:52.208Z,18.9
2017-07-17T01:34:33.095Z,18.92
2017-07-17T01:35:13.980Z,18.9
2017-07-17T01:35:54.871Z,18.89
2017-07-17T01:36:35.760Z,18.93
2017-07-17T01:37:16.649Z,18.93
2017-07-17T01:37:57.538Z,18.78
2017-07-17T01:38:38.433Z,18.81
2017-07-17T01:39:19.317Z,18.73
2017-07-17T01:40:00.207Z,18.77
2017-07-17T01:40:41.097Z,18.84
2017-07-17T01:41:21.993Z,18.93
2017-07-17T01:42:02.886Z,18.88
2017-07-17T01:42:43.784Z,18.86
2017-07-17T01:43:24.678Z,18.78
2017-07-17T01:44:05.562Z,18.78
2017-07-17T01:44:46.453Z,18.86
2017-07-17T01:45:27.348Z,18.83
2017-07-17T01:46:08.258Z,18.92
2017-07-17T01:46:49.140Z,18.88
2017-07-17T01:47:30.030Z,18.84
2017-07-17T01:48:10.934Z,18.77
2017-07-17T01:48:51.814Z,18.77
2017-07-17T01:49:32.709Z,18.77
2017-07-17T01:50:13.602Z,18.81
2017-07-17T01:50:54.490Z,18.74
2017-07-17T01:51:35.385Z,18.81
2017-07-17T01:52:16.276Z,18.7
2017-07-17T01:52:57.172Z,18.7
2017-07-17T01:53:38.077Z,18.77
2017-07-17T01:54:18.966Z,18.73
2017-07-17T01:54:59.864Z,18.77
2017-07-17T01:55:40.756Z,18.59
2017-07-17T01:56:21.646Z,18.63
2017-07-17T01:57:02.540Z,18.73
2017-07-17T01:57:43.430Z,18.71
2017-07-17T01:58:24.337Z,18.73
2017-07-17T01:59:05.214Z,18.73
2017-07-17T01:59:46.107Z,18.71
2017-07-17T02:00:26.996Z,18.63
2017-07-17T02:01:07.894Z,18.66
2017-07-17T02:01:48.803Z,18.6
2017-07-17T02:02:29.688Z,18.65
2017-07-17T02:03:10.585Z,18.7
2017-07-17T02:03:51.460Z,18.59
2017-07-17T02:04:32.356Z,18.58
2017-07-17T02:05:13.246Z,18.58
2017-07-17T02:05:54.135Z,18.49
2017-07-17T02:06:35.019Z,18.5
2017-07-17T02:07:15.917Z,18.49
2017-07-17T02:07:56.809Z,18.58
2017-07-17T02:08:37.696Z,18.5
2017-07-17T02:09:18.586Z,18.5
2017-07-17T02:09:59.475Z,18.55
2017-07-17T02:10:40.366Z,18.45
2017-07-17T02:11:21.251Z,18.63
2017-07-17T02:12:02.140Z,18.56
2017-07-17T02:12:43.041Z,18.53
2017-07-17T02:13:23.952Z,18.63
2017-07-17T02:14:04.832Z,18.53
2017-07-17T02:14:45.719Z,18.53
2017-07-17T02:15:26.607Z,18.62
2017-07-17T02:16:07.506Z,18.58
2017-07-17T02:16:48.399Z,18.49
2017-07-17T02:17:29.286Z,18.59
2017-07-17T02:18:10.166Z,18.58
2017-07-17T02:18:51.106Z,18.55
2017-07-17T02:19:31.955Z,18.55
2017-07-17T02:20:12.851Z,18.59
2017-07-17T02:20:53.737Z,18.62
2017-07-17T02:21:34.629Z,18.53
2017-07-17T02:22:15.506Z,18.59
2017-07-17T02:22:56.425Z,18.59
2017-07-17T02:23:37.299Z,18.53
2017-07-17T02:24:18.186Z,18.43
2017-07-17T02:24:59.071Z,18.47
2017-07-17T02:25:39.957Z,18.5
2017-07-17T02:26:20.866Z,18.4
2017-07-17T02:27:01.750Z,18.47
2017-07-17T02:27:42.642Z,18.47
2017-07-17T02:28:23.537Z,18.45
2017-07-17T02:29:04.422Z,18.47
2017-07-17T02:29:45.311Z,18.47
2017-07-17T02:30:26.192Z,18.43
2017-07-17T02:31:07.080Z,18.49
2017-07-17T02:31:47.973Z,18.43
2017-07-17T02:32:28.863Z,18.44
2017-07-17T02:33:09.750Z,18.44
2017-07-17T02:33:50.650Z,18.52
2017-07-17T02:34:31.542Z,18.43
2017-07-17T02:35:12.431Z,18.43
2017-07-17T02:35:53.330Z,18.35
2017-07-17T02:36:34.218Z,18.38
2017-07-17T02:37:15.113Z,18.33
2017-07-17T02:37:56.006Z,18.37
2017-07-17T02:38:36.899Z,18.47
2017-07-17T02:39:17.807Z,18.49
2017-07-17T02:39:58.691Z,18.44
2017-07-17T02:40:39.570Z,18.35
2017-07-17T02:41:20.460Z,18.33
2017-07-17T02:42:01.350Z,18.31
2017-07-17T02:42:42.235Z,18.33
2017-07-17T02:43:23.117Z,18.47
2017-07-17T02:44:04.011Z,18.37
2017-07-17T02:44:44.905Z,18.33
2017-07-17T02:45:25.784Z,18.45
2017-07-17T02:46:06.667Z,18.4
2017-07-17T02:46:47.555Z,18.37
2017-07-17T02:47:28.437Z,18.33
2017-07-17T02:48:09.323Z,18.28
2017-07-17T02:48:50.214Z,18.33
2017-07-17T02:49:31.109Z,18.28
2017-07-17T02:50:11.985Z,18.23
2017-07-17T02:50:52.874Z,18.23
2017-07-17T02:51:33.785Z,18.26
2017-07-17T02:52:14.665Z,18.23
2017-07-17T02:52:55.557Z,18.2
2017-07-17T02:53:36.488Z,18.33
2017-07-17T02:54:17.376Z,18.29
2017-07-17T02:54:58.259Z,18.38
2017-07-17T02:55:39.146Z,18.49
2017-07-17T02:56:20.045Z,18.41
2017-07-17T02:57:00.947Z,18.31
2017-07-17T02:57:41.828Z,18.34
2017-07-17T02:58:22.733Z,18.26
2017-07-17T02:59:03.611Z,18.28
2017-07-17T02:59:44.504Z,18.28
2017-07-17T03:00:25.412Z,18.23
2017-07-17T03:01:44.275Z,18.15
2017-07-17T03:02:25.161Z,18.19
2017-07-17T03:03:06.052Z,18.23
2017-07-17T03:03:46.951Z,18.15
2017-07-17T03:04:27.846Z,18.07
2017-07-17T03:05:08.715Z,18.15
2017-07-17T03:05:49.619Z,18.25
2017-07-17T03:06:30.503Z,18.22
2017-07-17T03:07:11.389Z,18.22
2017-07-17T03:07:52.290Z,18.23
2017-07-17T03:08:33.177Z,18.26
2017-07-17T03:09:14.075Z,18.07
2017-07-17T03:09:54.951Z,18.15
2017-07-17T03:10:35.837Z,18.22
2017-07-17T03:11:16.737Z,18.4
2017-07-17T03:11:57.631Z,18.26
2017-07-17T03:12:38.517Z,18.22
2017-07-17T03:13:19.403Z,18.22
2017-07-17T03:14:00.289Z,18.25
2017-07-17T03:14:41.189Z,18.2
2017-07-17T03:15:22.083Z,18.11
2017-07-17T03:16:02.961Z,18.13
2017-07-17T03:16:43.847Z,18.26
2017-07-17T03:17:24.746Z,18.18
2017-07-17T03:18:05.658Z,18.2
2017-07-17T03:18:46.549Z,18.07
2017-07-17T03:19:27.444Z,18.16
2017-07-17T03:20:08.337Z,18.25
2017-07-17T03:20:49.215Z,18.26
2017-07-17T03:21:30.112Z,18.08
2017-07-17T03:22:11.007Z,18.2
2017-07-17T03:22:51.894Z,18.1
2017-07-17T03:23:32.790Z,18.1
2017-07-17T03:24:13.676Z,18.18
2017-07-17T03:24:54.569Z,18.16
2017-07-17T03:25:35.460Z,18.08
2017-07-17T03:26:16.376Z,18.05
2017-07-17T03:26:57.276Z,18.08
2017-07-17T03:27:38.163Z,18.07
2017-07-17T03:28:19.050Z,18.08
2017-07-17T03:28:59.943Z,18.07
2017-07-17T03:29:40.836Z,18.16
2017-07-17T03:30:21.729Z,18.08
2017-07-17T03:31:02.606Z,18.05
2017-07-17T03:31:43.496Z,18.11
2017-07-17T03:32:24.390Z,18.1
2017-07-17T03:33:05.273Z,18.03
2017-07-17T03:33:46.177Z,18.1
2017-07-17T03:34:27.066Z,18.11
2017-07-17T03:35:07.954Z,18.1
2017-07-17T03:35:48.836Z,18.13
2017-07-17T03:36:29.732Z,18.04
2017-07-17T03:37:10.620Z,17.94
2017-07-17T03:37:51.517Z,17.94
2017-07-17T03:38:32.436Z,17.97
2017-07-17T03:39:13.340Z,17.9
2017-07-17T03:39:54.233Z,17.82
2017-07-17T03:40:35.128Z,17.87
2017-07-17T03:41:16.016Z,17.86
2017-07-17T03:41:56.916Z,17.82
2017-07-17T03:42:37.801Z,17.76
2017-07-17T03:43:18.682Z,17.8
2017-07-17T03:43:59.571Z,17.78
2017-07-17T03:44:40.470Z,17.79
2017-07-17T03:45:21.364Z,17.78
2017-07-17T03:46:02.247Z,17.76
2017-07-17T03:46:43.134Z,17.7
2017-07-17T03:47:24.026Z,17.74
2017-07-17T03:48:04.919Z,17.68
2017-07-17T03:48:45.815Z,17.64
2017-07-17T03:49:26.690Z,17.63
2017-07-17T03:50:07.577Z,17.67
2017-07-17T03:50:48.468Z,17.68
2017-07-17T03:51:29.360Z,17.71
2017-07-17T03:52:10.256Z,17.56
2017-07-17T03:52:51.157Z,17.63
2017-07-17T03:53:32.036Z,17.6
2017-07-17T03:54:12.924Z,17.63
2017-07-17T03:54:53.807Z,17.64
2017-07-17T03:55:34.704Z,17.6
2017-07-17T03:56:15.585Z,17.51
2017-07-17T03:56:56.476Z,17.6
2017-07-17T03:57:37.369Z,17.63
2017-07-17T03:58:18.254Z,17.6
2017-07-17T03:58:59.136Z,17.57
2017-07-17T03:59:40.082Z,17.59
2017-07-17T04:00:20.924Z,17.64
2017-07-17T04:01:01.803Z,17.65
2017-07-17T04:01:42.704Z,17.59
2017-07-17T04:02:23.582Z,17.6
2017-07-17T04:03:04.459Z,17.56
2017-07-17T04:03:45.362Z,17.49
2017-07-17T04:04:26.260Z,17.63
2017-07-17T04:05:07.132Z,17.7
2017-07-17T04:05:48.024Z,17.68
2017-07-17T04:06:28.920Z,17.71
2017-07-17T04:07:09.804Z,17.71
2017-07-17T04:07:50.714Z,17.72
2017-07-17T04:08:31.613Z,17.59
2017-07-17T04:09:12.485Z,17.54
2017-07-17T04:09:53.375Z,17.67
2017-07-17T04:10:34.273Z,17.63
2017-07-17T04:11:15.158Z,17.65
2017-07-17T04:11:56.035Z,17.63
2017-07-17T04:12:36.915Z,17.63
2017-07-17T04:13:17.852Z,17.64
2017-07-17T04:13:58.714Z,17.6
2017-07-17T04:14:39.604Z,17.63
2017-07-17T04:15:20.495Z,17.51
2017-07-17T04:16:01.375Z,17.6
2017-07-17T04:16:42.256Z,17.42
2017-07-17T04:17:23.136Z,17.51
2017-07-17T04:18:04.044Z,17.64
2017-07-17T04:18:44.927Z,17.48
2017-07-17T04:19:25.814Z,17.48
2017-07-17T04:20:06.706Z,17.34
2017-07-17T04:20:47.605Z,17.39
2017-07-17T04:21:28.478Z,17.46
2017-07-17T04:22:09.366Z,17.57
2017-07-17T04:22:50.256Z,17.59
2017-07-17T04:23:31.184Z,17.56
2017-07-17T04:24:12.081Z,17.46
2017-07-17T04:24:52.969Z,17.34
2017-07-17T04:25:33.849Z,17.36
2017-07-17T04:26:14.763Z,17.33
2017-07-17T04:26:55.647Z,17.41
2017-07-17T04:27:36.548Z,17.39
2017-07-17T04:28:17.433Z,17.46
2017-07-17T04:28:58.306Z,17.45
2017-07-17T04:29:39.219Z,17.36
2017-07-17T04:30:20.110Z,17.64
2017-07-17T04:31:01.003Z,17.57
2017-07-17T04:31:41.896Z,17.6
2017-07-17T04:32:22.779Z,17.63
2017-07-17T04:33:03.661Z,17.49
2017-07-17T04:33:44.541Z,17.63
2017-07-17T04:34:25.453Z,17.56
2017-07-17T04:35:06.336Z,17.46
2017-07-17T04:35:47.220Z,17.46
2017-07-17T04:36:28.115Z,17.39
2017-07-17T04:37:09.002Z,17.36
2017-07-17T04:37:49.889Z,17.33
2017-07-17T04:38:30.771Z,17.34
2017-07-17T04:39:11.675Z,17.46
2017-07-17T04:39:52.563Z,17.38
2017-07-17T04:40:33.456Z,17.57
2017-07-17T04:41:14.353Z,17.48
2017-07-17T04:41:55.238Z,17.45
2017-07-17T04:42:36.136Z,17.45
2017-07-17T04:43:17.021Z,17.36
2017-07-17T04:43:57.899Z,17.52
2017-07-17T04:44:38.789Z,17.59
2017-07-17T04:45:19.700Z,17.44
2017-07-17T04:46:00.598Z,17.42
2017-07-17T04:46:41.486Z,17.44
2017-07-17T04:47:22.375Z,17.36
2017-07-17T04:48:03.263Z,17.34
2017-07-17T04:48:44.160Z,17.41
2017-07-17T04:49:25.051Z,17.3
2017-07-17T04:50:05.946Z,17.34
2017-07-17T04:50:46.831Z,17.39
2017-07-17T04:51:27.725Z,17.36
2017-07-17T04:52:08.619Z,17.38
2017-07-17T04:52:49.513Z,17.36
2017-07-17T04:53:30.408Z,17.38
2017-07-17T04:54:11.296Z,17.49
2017-07-17T04:54:52.199Z,17.49
2017-07-17T04:55:33.086Z,17.38
2017-07-17T04:56:13.979Z,17.52
2017-07-17T04:56:54.865Z,17.49
2017-07-17T04:57:35.757Z,17.34
2017-07-17T04:58:16.646Z,17.44
2017-07-17T04:58:57.535Z,17.56
2017-07-17T04:59:38.430Z,17.36
2017-07-17T05:00:19.321Z,17.45
2017-07-17T05:01:00.215Z,17.49
2017-07-17T05:01:41.106Z,17.34
2017-07-17T05:02:21.999Z,17.44
2017-07-17T05:03:02.939Z,17.54
2017-07-17T05:03:43.832Z,17.39
2017-07-17T05:04:24.724Z,17.33
2017-07-17T05:05:05.606Z,17.31
2017-07-17T05:05:46.491Z,17.36
2017-07-17T05:06:27.382Z,17.44
2017-07-17T05:07:08.274Z,17.41
2017-07-17T05:07:49.162Z,17.34
2017-07-17T05:08:30.096Z,17.36
2017-07-17T05:09:10.950Z,17.24
2017-07-17T05:09:51.852Z,17.38
2017-07-17T05:10:32.748Z,17.49
2017-07-17T05:11:13.630Z,17.54
2017-07-17T05:11:54.526Z,17.51
2017-07-17T05:12:35.409Z,17.44
2017-07-17T05:13:16.305Z,17.56
2017-07-17T05:13:57.190Z,17.64
2017-07-17T05:14:38.078Z,17.67
2017-07-17T05:15:18.967Z,17.65
2017-07-17T05:15:59.851Z,17.59
2017-07-17T05:16:40.742Z,17.63
2017-07-17T05:17:21.633Z,17.74
2017-07-17T05:18:02.538Z,17.76
2017-07-17T05:18:43.415Z,17.68
2017-07-17T05:19:24.305Z,17.71
2017-07-17T05:20:05.212Z,17.67
2017-07-17T05:20:46.102Z,17.68
2017-07-17T05:21:26.996Z,17.68
2017-07-17T05:22:07.880Z,17.64
2017-07-17T05:22:48.771Z,17.63
2017-07-17T05:23:29.662Z,17.72
2017-07-17T05:24:10.547Z,17.76
2017-07-17T05:24:51.433Z,17.67
2017-07-17T05:25:32.326Z,17.83
2017-07-17T05:26:13.216Z,17.72
2017-07-17T05:26:54.101Z,17.71
2017-07-17T05:27:34.996Z,17.57
2017-07-17T05:28:15.887Z,17.79
2017-07-17T05:28:56.778Z,17.89
2017-07-17T05:29:37.655Z,17.89
2017-07-17T05:30:18.547Z,17.68
2017-07-17T05:30:59.444Z,17.74
2017-07-17T05:31:40.330Z,17.7
2017-07-17T05:32:21.216Z,17.79
2017-07-17T05:33:02.110Z,17.71
2017-07-17T05:33:42.990Z,17.68
2017-07-17T05:34:23.881Z,17.71
2017-07-17T05:35:04.777Z,17.64
2017-07-17T05:35:45.649Z,17.74
2017-07-17T05:36:26.578Z,17.67
2017-07-17T05:37:07.472Z,17.72
2017-07-17T05:37:48.366Z,17.68
2017-07-17T05:38:29.251Z,17.74
2017-07-17T05:39:10.133Z,17.74
2017-07-17T05:39:51.017Z,17.8
2017-07-17T05:40:31.905Z,17.79
2017-07-17T05:41:12.794Z,17.7
2017-07-17T05:41:53.676Z,17.72
2017-07-17T05:42:34.576Z,17.64
2017-07-17T05:43:15.472Z,17.68
2017-07-17T05:43:56.367Z,17.79
2017-07-17T05:44:37.260Z,17.79
2017-07-17T05:45:18.155Z,17.8
2017-07-17T05:45:59.024Z,17.76
2017-07-17T05:46:39.909Z,17.9
2017-07-17T05:47:20.797Z,18.05
2017-07-17T05:48:01.691Z,18.04
2017-07-17T05:48:42.571Z,18
2017-07-17T05:49:23.457Z,18.01
2017-07-17T05:50:04.349Z,18.18
2017-07-17T05:50:45.246Z,18.04
2017-07-17T05:51:26.136Z,18.08
2017-07-17T05:52:07.024Z,18.25
2017-07-17T05:52:47.908Z,18.34
2017-07-17T05:53:28.818Z,18.26
2017-07-17T05:54:09.714Z,18.5
2017-07-17T05:54:50.632Z,18.47
2017-07-17T05:55:31.531Z,18.78
2017-07-17T05:56:12.430Z,18.6
2017-07-17T05:56:53.613Z,18.37
2017-07-17T05:58:11.552Z,18.31
2017-07-17T05:58:52.445Z,18.22
2017-07-17T05:59:33.332Z,18.07
2017-07-17T06:00:14.218Z,18.25
2017-07-17T06:00:55.111Z,18.28
2017-07-17T06:01:36.006Z,18.15
2017-07-17T06:02:16.896Z,18.18
2017-07-17T06:02:57.798Z,18.11
2017-07-17T06:03:38.679Z,18.22
2017-07-17T06:04:19.567Z,18.15
2017-07-17T06:05:00.471Z,18.4
2017-07-17T06:05:41.357Z,18.43
2017-07-17T06:06:22.242Z,18.59
2017-07-17T06:07:03.141Z,18.71
2017-07-17T06:07:44.028Z,18.77
2017-07-17T06:08:24.915Z,18.71
2017-07-17T06:09:05.795Z,18.95
2017-07-17T06:09:46.680Z,18.89
2017-07-17T06:10:27.563Z,18.92
2017-07-17T06:11:08.457Z,18.96
2017-07-17T06:11:49.362Z,18.77
2017-07-17T06:12:30.243Z,18.62
2017-07-17T06:13:11.124Z,18.66
2017-07-17T06:13:52.011Z,18.58
2017-07-17T06:14:32.911Z,19.07
2017-07-17T06:15:13.808Z,19.07
2017-07-17T06:15:54.715Z,19.33
2017-07-17T06:16:35.597Z,19.29
2017-07-17T06:17:16.482Z,19.11
2017-07-17T06:17:57.376Z,19.26
2017-07-17T06:18:38.275Z,19.29
2017-07-17T06:19:19.159Z,19.27
2017-07-17T06:20:00.047Z,19.26
2017-07-17T06:20:40.937Z,19.3
2017-07-17T06:21:21.835Z,19.21
2017-07-17T06:22:02.732Z,18.81
2017-07-17T06:22:43.625Z,18.6
2017-07-17T06:23:24.515Z,18.59
2017-07-17T06:24:05.412Z,18.63
2017-07-17T06:24:46.299Z,18.53
2017-07-17T06:25:27.200Z,18.66
2017-07-17T06:26:08.093Z,18.9
2017-07-17T06:26:48.983Z,18.86
2017-07-17T06:27:29.877Z,19.15
2017-07-17T06:28:10.778Z,19
2017-07-17T06:28:51.648Z,18.84
2017-07-17T06:29:32.537Z,18.77
2017-07-17T06:30:13.434Z,18.58
2017-07-17T06:30:54.319Z,18.81
2017-07-17T06:31:35.237Z,18.88
2017-07-17T06:32:16.123Z,18.77
2017-07-17T06:32:57.001Z,18.68
2017-07-17T06:33:37.898Z,18.56
2017-07-17T06:34:18.787Z,18.63
2017-07-17T06:34:59.681Z,18.47
2017-07-17T06:35:40.578Z,18.25
2017-07-17T06:36:21.465Z,18.18
2017-07-17T06:37:02.361Z,17.98
2017-07-17T06:37:43.255Z,18.08
2017-07-17T06:38:24.145Z,17.98
2017-07-17T06:39:05.049Z,17.87
2017-07-17T06:39:45.936Z,17.95
2017-07-17T06:40:26.834Z,18.03
2017-07-17T06:41:07.731Z,18.03
2017-07-17T06:41:48.628Z,18.16
2017-07-17T06:42:29.517Z,18.25
2017-07-17T06:43:10.398Z,18.26
2017-07-17T06:43:51.286Z,18.68
2017-07-17T06:44:32.184Z,18.86
2017-07-17T06:45:13.076Z,19.22
2017-07-17T06:45:53.966Z,19.52
2017-07-17T06:46:34.862Z,19.7
2017-07-17T06:47:15.767Z,20.29
2017-07-17T06:47:56.645Z,20.6
2017-07-17T06:48:37.542Z,20.97
2017-07-17T06:49:18.459Z,20.93
2017-07-17T06:49:59.374Z,21.21
2017-07-17T06:50:40.265Z,21.43
2017-07-17T06:51:21.152Z,21.62
2017-07-17T06:52:02.048Z,21.27
2017-07-17T06:52:42.942Z,21.67
2017-07-17T06:53:23.831Z,21.62
2017-07-17T06:54:04.727Z,21.05
2017-07-17T06:54:45.626Z,20.87
2017-07-17T06:55:26.512Z,21.06
2017-07-17T06:56:07.417Z,20.85
2017-07-17T06:56:48.319Z,20.81
2017-07-17T06:57:29.204Z,20.48
2017-07-17T06:58:10.101Z,20.39
2017-07-17T06:58:50.998Z,20.37
2017-07-17T06:59:31.898Z,20.59
2017-07-17T07:00:12.787Z,21.21
2017-07-17T07:00:53.679Z,21.67
2017-07-17T07:01:34.575Z,21.46
2017-07-17T07:02:15.471Z,21.43
2017-07-17T07:02:56.359Z,21.85
2017-07-17T07:03:37.262Z,22.17
2017-07-17T07:04:18.166Z,22.35
2017-07-17T07:04:59.066Z,22.29
2017-07-17T07:05:39.954Z,22.73
2017-07-17T07:06:20.867Z,22.7
2017-07-17T07:07:01.776Z,23.62
2017-07-17T07:07:42.689Z,24.13
2017-07-17T07:08:23.578Z,24.5
2017-07-17T07:09:04.475Z,24.18
2017-07-17T07:09:45.377Z,24.13
2017-07-17T07:10:26.267Z,23.43
2017-07-17T07:11:07.258Z,23.34
2017-07-17T07:11:48.226Z,23.58
2017-07-17T07:12:29.053Z,23.54
2017-07-17T07:13:09.995Z,22.98
2017-07-17T07:13:50.860Z,22.93
2017-07-17T07:14:31.762Z,22.98
2017-07-17T07:15:12.666Z,23.58
2017-07-17T07:15:53.572Z,24.06
2017-07-17T07:16:34.478Z,23.63
2017-07-17T07:17:15.382Z,24.24
2017-07-17T07:17:56.279Z,23.71
2017-07-17T07:18:37.191Z,23.84
2017-07-17T07:19:56.074Z,23.86
2017-07-17T07:20:36.978Z,23.66
2017-07-17T07:21:17.920Z,23.51
2017-07-17T07:21:58.828Z,24.11
2017-07-17T07:22:39.745Z,24.5
2017-07-17T07:23:20.649Z,23.59
2017-07-17T07:24:01.548Z,23.06
2017-07-17T07:24:42.454Z,22.75
2017-07-17T07:25:23.386Z,23.17
2017-07-17T07:26:04.282Z,23.55
2017-07-17T07:26:45.152Z,23.21
2017-07-17T07:27:26.051Z,23.37
2017-07-17T07:28:06.950Z,23.5
2017-07-17T07:28:47.848Z,23.4
2017-07-17T07:29:28.756Z,23.44
2017-07-17T07:30:09.652Z,23.56
2017-07-17T07:30:50.552Z,23.4
2017-07-17T07:31:31.464Z,22.99
2017-07-17T07:32:12.370Z,22.13
2017-07-17T07:32:53.270Z,20.8
2017-07-17T07:33:34.170Z,20.97
2017-07-17T07:34:15.070Z,21.43
2017-07-17T07:34:55.977Z,21.69
2017-07-17T07:35:36.872Z,21.64
2017-07-17T07:36:17.767Z,21.45
2017-07-17T07:36:58.726Z,21.55
2017-07-17T07:37:39.624Z,21.85
2017-07-17T07:38:20.541Z,21.66
2017-07-17T07:39:01.437Z,22.23
2017-07-17T07:39:42.345Z,22.13
2017-07-17T07:40:23.231Z,21.72
2017-07-17T07:41:04.137Z,21.18
2017-07-17T07:41:45.032Z,21.11
2017-07-17T07:42:25.928Z,20.93
2017-07-17T07:43:06.835Z,21.02
2017-07-17T07:43:47.732Z,21.72
2017-07-17T07:44:28.629Z,21.64
2017-07-17T07:45:09.530Z,22.1
2017-07-17T07:45:50.430Z,22.83
2017-07-17T07:46:31.329Z,23.69
2017-07-17T07:47:12.233Z,24.13
2017-07-17T07:47:53.127Z,23.05
2017-07-17T07:48:34.026Z,22.75
2017-07-17T07:49:14.915Z,21.55
2017-07-17T07:49:55.865Z,20.75
2017-07-17T07:50:36.754Z,20.75
2017-07-17T07:51:17.749Z,20.87
2017-07-17T07:51:58.568Z,20.81
2017-07-17T07:52:39.518Z,20.96
2017-07-17T07:53:20.432Z,20.6
2017-07-17T07:54:01.326Z,20.62
2017-07-17T07:54:42.237Z,20.87
2017-07-17T07:55:23.140Z,20.58
2017-07-17T07:56:04.031Z,20.37
2017-07-17T07:56:44.919Z,20.09
2017-07-17T07:57:25.814Z,20.13
2017-07-17T07:58:06.726Z,20.55
2017-07-17T07:58:47.632Z,20.51
2017-07-17T07:59:28.526Z,20.28
2017-07-17T08:00:09.425Z,20.59
2017-07-17T08:00:50.310Z,21.14
2017-07-17T08:01:31.211Z,21.46
2017-07-17T08:02:12.101Z,21.79
2017-07-17T08:02:53.000Z,21.46
2017-07-17T08:03:33.912Z,21.75
2017-07-17T08:04:14.815Z,22.29
2017-07-17T08:04:55.701Z,22.41
2017-07-17T08:05:36.593Z,22.69
2017-07-17T08:06:17.491Z,22.85
2017-07-17T08:06:58.388Z,23.24
2017-07-17T08:07:39.327Z,23.44
2017-07-17T08:08:20.228Z,23.08
2017-07-17T08:09:01.127Z,22.54
2017-07-17T08:09:42.041Z,22.87
2017-07-17T08:10:22.941Z,21.75
2017-07-17T08:11:03.841Z,21.67
2017-07-17T08:11:44.745Z,21.06
2017-07-17T08:12:25.640Z,20.84
2017-07-17T08:13:06.540Z,21.05
2017-07-17T08:13:47.450Z,21.09
2017-07-17T08:14:28.341Z,20.88
2017-07-17T08:15:09.244Z,20.87
2017-07-17T08:15:50.144Z,21.12
2017-07-17T08:16:31.066Z,21.27
2017-07-17T08:17:11.957Z,20.97
2017-07-17T08:17:52.853Z,20.96
2017-07-17T08:18:33.764Z,21
2017-07-17T08:19:14.649Z,20.67
2017-07-17T08:19:55.551Z,21
2017-07-17T08:20:36.456Z,21.24
2017-07-17T08:21:17.350Z,21.72
2017-07-17T08:21:58.260Z,21.82
2017-07-17T08:22:39.214Z,22.25
2017-07-17T08:23:20.103Z,22.25
2017-07-17T08:24:01.006Z,22.43
2017-07-17T08:24:41.922Z,22.45
2017-07-17T08:25:22.836Z,22.43
2017-07-17T08:26:03.735Z,22.68
2017-07-17T08:26:44.644Z,23.06
2017-07-17T08:27:25.550Z,23.06
2017-07-17T08:28:06.464Z,23.18
2017-07-17T08:28:47.382Z,22.81
2017-07-17T08:29:28.279Z,22.25
2017-07-17T08:30:09.174Z,22.11
2017-07-17T08:30:50.074Z,21.85
2017-07-17T08:31:30.981Z,22.3
2017-07-17T08:32:11.918Z,22.8
2017-07-17T08:32:52.826Z,22.3
2017-07-17T08:33:33.732Z,21.67
2017-07-17T08:34:14.645Z,21.82
2017-07-17T08:34:55.556Z,22.11
2017-07-17T08:35:36.462Z,22.65
2017-07-17T08:36:17.372Z,22.41
2017-07-17T08:36:58.253Z,22.04
2017-07-17T08:37:39.150Z,21.95
2017-07-17T08:38:20.051Z,21.85
2017-07-17T08:39:00.960Z,22.13
2017-07-17T08:39:41.867Z,22.28
2017-07-17T08:40:22.770Z,22.1
2017-07-17T08:41:03.676Z,22.38
2017-07-17T08:41:44.577Z,21.85
2017-07-17T08:42:25.472Z,21.64
2017-07-17T08:43:06.381Z,21.3
2017-07-17T08:43:47.292Z,21.36
2017-07-17T08:44:28.202Z,21.58
2017-07-17T08:45:09.110Z,21.67
2017-07-17T08:45:50.008Z,22.17
2017-07-17T08:46:30.910Z,22.93
2017-07-17T08:47:11.809Z,23.77
2017-07-17T08:47:52.698Z,24.3
2017-07-17T08:48:33.598Z,24.98
2017-07-17T08:49:14.499Z,25.17
2017-07-17T08:49:55.401Z,24.42
2017-07-17T08:50:36.302Z,24.17
2017-07-17T08:51:17.203Z,23.95